Time;durP1;ratioP1;P1;durP2;ratioP2;P2;SDS_P1;SDS_P2;PMS_P1;PMS_P2;Temp;Humidity;BMP_temperature;BMP_pressure;BME280_temperature;BME280_humidity;BME280_pressure;Samples;Min_cycle;Max_cycle;Signal;HPM_P1;HPM_P2
2024/01/15 00:01:14;;;;;;;18.55;2.55;;;;;;;;;;5037106;28;20526;-68
2024/01/15 00:04:00;;;;;;;17.40;5.43;;;;;;;;;;5039661;28;20056;-69
2024/01/15 00:06:45;;;;;;;10.32;3.10;;;;;;;;;;5036603;28;20120;-68
2024/01/15 00:09:31;;;;;;;16.35;2.47;;;;;;;;;;5039846;28;20461;-68
2024/01/15 00:12:17;;;;;;;11.40;2.90;;;;;;;;;;5040202;28;20104;-68
2024/01/15 00:15:03;;;;;;;6.45;1.67;;;;;;;;;;5052645;28;20029;-68
2024/01/15 00:17:48;;;;;;;9.60;3.55;;;;;;;;;;5038918;28;20021;-68
2024/01/15 00:20:34;;;;;;;10.85;3.17;;;;;;;;;;5050324;28;20021;-68
2024/01/15 00:23:20;;;;;;;11.60;2.58;;;;;;;;;;5052318;28;20025;-68
2024/01/15 00:26:05;;;;;;;5.63;2.20;;;;;;;;;;5053191;28;20027;-68
2024/01/15 00:28:51;;;;;;;9.50;2.55;;;;;;;;;;5053736;28;20025;-68
2024/01/15 00:31:36;;;;;;;5.60;2.67;;;;;;;;;;5048349;28;20022;-68
2024/01/15 00:34:22;;;;;;;12.07;2.78;;;;;;;;;;5034155;28;20027;-68
2024/01/15 00:37:08;;;;;;;8.02;1.90;;;;;;;;;;5034446;28;20490;-68
2024/01/15 00:39:53;;;;;;;11.52;2.55;;;;;;;;;;5032974;28;20100;-68
2024/01/15 00:42:39;;;;;;;14.30;3.35;;;;;;;;;;5034317;28;20025;-68
2024/01/15 00:45:25;;;;;;;14.32;3.50;;;;;;;;;;5052968;28;20036;-68
2024/01/15 00:48:10;;;;;;;16.73;2.83;;;;;;;;;;5053527;28;20581;-67
2024/01/15 00:50:56;;;;;;;12.48;4.03;;;;;;;;;;5033043;28;20034;-68
2024/01/15 00:53:41;;;;;;;11.05;1.73;;;;;;;;;;5033690;28;20064;-68
2024/01/15 00:56:27;;;;;;;12.85;3.20;;;;;;;;;;5044535;28;20824;-68
2024/01/15 00:59:14;;;;;;;18.30;3.25;;;;;;;;;;5045405;28;20051;-69
2024/01/15 01:02:00;;;;;;;10.75;3.22;;;;;;;;;;5034092;28;20163;-68
2024/01/15 01:04:46;;;;;;;4.13;2.70;;;;;;;;;;5033581;28;20075;-68
2024/01/15 01:07:31;;;;;;;5.88;1.75;;;;;;;;;;5032883;28;20025;-68
2024/01/15 01:10:17;;;;;;;14.23;2.25;;;;;;;;;;5024628;28;20064;-69
2024/01/15 01:13:03;;;;;;;12.20;2.33;;;;;;;;;;5033770;28;20446;-68
2024/01/15 01:15:48;;;;;;;6.50;1.92;;;;;;;;;;5042782;28;20029;-68
2024/01/15 01:18:35;;;;;;;9.13;2.28;;;;;;;;;;5035619;28;20052;-68
2024/01/15 01:21:20;;;;;;;6.03;2.42;;;;;;;;;;5053669;28;20494;-68
2024/01/15 01:24:06;;;;;;;9.48;2.50;;;;;;;;;;5050811;28;20052;-68
2024/01/15 01:26:51;;;;;;;12.18;2.38;;;;;;;;;;5047916;28;20033;-67
2024/01/15 01:29:37;;;;;;;15.38;3.58;;;;;;;;;;5033221;28;20402;-68
2024/01/15 01:32:23;;;;;;;15.32;2.45;;;;;;;;;;5043157;28;20016;-69
2024/01/15 01:35:08;;;;;;;14.30;2.08;;;;;;;;;;5048205;28;20036;-68
2024/01/15 01:37:57;;;;;;;10.25;2.45;;;;;;;;;;5051222;28;20029;-68
2024/01/15 01:40:42;;;;;;;16.75;2.60;;;;;;;;;;5048415;28;20021;-68
2024/01/15 01:43:28;;;;;;;9.50;2.00;;;;;;;;;;5053133;28;20567;-68
2024/01/15 01:46:14;;;;;;;16.70;2.80;;;;;;;;;;5050494;28;20021;-67
2024/01/15 01:49:05;;;;;;;14.13;2.58;;;;;;;;;;5031355;28;20475;-68
2024/01/15 01:51:50;;;;;;;15.52;2.70;;;;;;;;;;5031442;28;20029;-69
2024/01/15 01:54:37;;;;;;;12.45;2.28;;;;;;;;;;5039699;28;20120;-68
2024/01/15 01:57:22;;;;;;;8.77;1.88;;;;;;;;;;5018711;28;20487;-68
2024/01/15 02:00:09;;;;;;;16.88;2.58;;;;;;;;;;5038271;28;20100;-68
2024/01/15 02:02:54;;;;;;;9.70;2.42;;;;;;;;;;5047763;28;20406;-68
2024/01/15 02:05:43;;;;;;;16.83;3.05;;;;;;;;;;5052818;28;20028;-68
2024/01/15 02:08:28;;;;;;;8.00;1.90;;;;;;;;;;5031101;28;20033;-69
2024/01/15 02:11:16;;;;;;;12.13;2.30;;;;;;;;;;5032865;28;20029;-68
2024/01/15 02:14:03;;;;;;;8.88;2.75;;;;;;;;;;5038123;28;20029;-68
2024/01/15 02:16:48;;;;;;;9.05;3.25;;;;;;;;;;5045712;28;20028;-68
2024/01/15 02:19:34;;;;;;;7.22;2.20;;;;;;;;;;5052398;28;20406;-68
2024/01/15 02:22:23;;;;;;;13.10;2.20;;;;;;;;;;5041264;28;20025;-68
2024/01/15 02:25:08;;;;;;;6.97;2.28;;;;;;;;;;5049557;28;20052;-68
2024/01/15 02:27:54;;;;;;;6.65;1.33;;;;;;;;;;5052956;28;20084;-68
2024/01/15 02:30:47;;;;;;;10.50;1.90;;;;;;;;;;5056415;28;20483;-68
2024/01/15 02:33:33;;;;;;;5.97;2.28;;;;;;;;;;5056825;28;20036;-68
2024/01/15 02:36:19;;;;;;;7.25;2.10;;;;;;;;;;5057182;28;20443;-68
2024/01/15 02:39:04;;;;;;;27.38;2.83;;;;;;;;;;5054863;28;20115;-68
2024/01/15 02:41:50;;;;;;;8.15;1.48;;;;;;;;;;5041906;28;20458;-68
2024/01/15 02:44:35;;;;;;;7.90;2.22;;;;;;;;;;5057131;28;20440;-68
2024/01/15 02:47:21;;;;;;;7.00;2.17;;;;;;;;;;5056664;28;20025;-68
2024/01/15 02:50:07;;;;;;;15.38;2.97;;;;;;;;;;5055928;28;20025;-68
2024/01/15 02:52:52;;;;;;;13.15;2.75;;;;;;;;;;5056677;28;20394;-68
2024/01/15 02:55:38;;;;;;;15.15;2.20;;;;;;;;;;5057289;28;20017;-68
2024/01/15 02:58:24;;;;;;;8.85;2.67;;;;;;;;;;5056536;28;20045;-68
2024/01/15 03:01:09;;;;;;;7.95;3.00;;;;;;;;;;5057328;28;20024;-68
2024/01/15 03:03:55;;;;;;;8.93;2.50;;;;;;;;;;5056811;28;20051;-68
2024/01/15 03:06:41;;;;;;;15.25;2.40;;;;;;;;;;5056621;28;20032;-68
2024/01/15 03:09:26;;;;;;;5.40;1.70;;;;;;;;;;5056166;28;20025;-68
2024/01/15 03:12:12;;;;;;;11.60;3.58;;;;;;;;;;5056696;28;20025;-68
2024/01/15 03:14:57;;;;;;;10.35;1.55;;;;;;;;;;5041852;28;20437;-68
2024/01/15 03:17:43;;;;;;;12.95;3.15;;;;;;;;;;5056078;28;20029;-68
2024/01/15 03:20:29;;;;;;;7.72;1.70;;;;;;;;;;5056564;28;20029;-68
2024/01/15 03:23:14;;;;;;;3.47;2.85;;;;;;;;;;5056693;28;20363;-68
2024/01/15 03:26:00;;;;;;;9.73;2.38;;;;;;;;;;5055376;28;20447;-68
2024/01/15 03:28:46;;;;;;;10.50;2.35;;;;;;;;;;5057099;28;20029;-68
2024/01/15 03:31:31;;;;;;;14.18;2.33;;;;;;;;;;5056785;28;20440;-68
2024/01/15 03:34:17;;;;;;;10.30;2.05;;;;;;;;;;5055876;28;20033;-68
2024/01/15 03:37:03;;;;;;;14.80;2.85;;;;;;;;;;5042299;28;20025;-68
2024/01/15 03:39:49;;;;;;;16.98;3.17;;;;;;;;;;5055661;28;20375;-68
2024/01/15 03:42:34;;;;;;;7.15;3.85;;;;;;;;;;5040846;28;20048;-68
2024/01/15 03:45:20;;;;;;;10.27;2.78;;;;;;;;;;5055915;28;20078;-68
2024/01/15 03:48:06;;;;;;;12.18;3.15;;;;;;;;;;5055798;28;20483;-68
2024/01/15 03:50:51;;;;;;;17.65;2.83;;;;;;;;;;5054597;28;20033;-68
2024/01/15 03:53:38;;;;;;;19.40;3.10;;;;;;;;;;5055451;28;20021;-69
2024/01/15 03:56:23;;;;;;;6.00;2.28;;;;;;;;;;5055856;28;20025;-68
2024/01/15 03:59:09;;;;;;;12.25;3.17;;;;;;;;;;5055134;28;20494;-69
2024/01/15 04:01:55;;;;;;;32.83;5.30;;;;;;;;;;5049953;28;20051;-69
2024/01/15 04:04:42;;;;;;;12.60;2.65;;;;;;;;;;5050622;28;20021;-68
2024/01/15 04:07:28;;;;;;;19.15;2.25;;;;;;;;;;5053032;28;20028;-68
2024/01/15 04:10:13;;;;;;;11.65;2.13;;;;;;;;;;5052981;28;20086;-68
2024/01/15 04:13:00;;;;;;;5.43;2.00;;;;;;;;;;5055031;28;20459;-68
2024/01/15 04:15:45;;;;;;;11.68;3.15;;;;;;;;;;5052462;28;20425;-68
2024/01/15 04:18:31;;;;;;;14.85;2.30;;;;;;;;;;5047815;28;20021;-68
2024/01/15 04:21:18;;;;;;;11.77;2.78;;;;;;;;;;5053441;28;20029;-68
2024/01/15 04:24:04;;;;;;;5.50;2.80;;;;;;;;;;5053892;28;20031;-68
2024/01/15 04:26:49;;;;;;;11.02;2.00;;;;;;;;;;5054678;28;20039;-68
2024/01/15 04:29:37;;;;;;;4.68;1.55;;;;;;;;;;5049117;28;20018;-68
2024/01/15 04:32:23;;;;;;;13.07;2.88;;;;;;;;;;5048990;28;20029;-68
2024/01/15 04:35:09;;;;;;;5.95;2.05;;;;;;;;;;5054124;28;20044;-68
2024/01/15 04:37:54;;;;;;;2.78;2.15;;;;;;;;;;5052073;28;20410;-68
2024/01/15 04:40:40;;;;;;;10.05;2.55;;;;;;;;;;5054285;28;20100;-68
2024/01/15 04:43:26;;;;;;;10.15;2.72;;;;;;;;;;5053061;28;20021;-68
2024/01/15 04:46:12;;;;;;;15.40;3.05;;;;;;;;;;5054120;28;20024;-68
2024/01/15 04:48:57;;;;;;;6.00;2.33;;;;;;;;;;5034360;28;20451;-68
2024/01/15 04:51:43;;;;;;;16.50;2.72;;;;;;;;;;5050288;28;20032;-68
2024/01/15 04:54:28;;;;;;;9.07;1.90;;;;;;;;;;5053104;28;20064;-68
2024/01/15 04:57:14;;;;;;;5.10;1.75;;;;;;;;;;5050797;28;20502;-68
2024/01/15 05:00:00;;;;;;;7.65;2.00;;;;;;;;;;5052934;28;20037;-68
2024/01/15 05:02:46;;;;;;;9.57;1.75;;;;;;;;;;5052058;28;20086;-68
2024/01/15 05:05:31;;;;;;;6.30;1.85;;;;;;;;;;5042877;28;20030;-69
2024/01/15 05:08:17;;;;;;;6.57;1.90;;;;;;;;;;5033573;28;20053;-68
2024/01/15 05:11:03;;;;;;;9.30;2.65;;;;;;;;;;5045482;28;20032;-68
2024/01/15 05:13:49;;;;;;;11.70;2.25;;;;;;;;;;5038689;28;20033;-68
2024/01/15 05:16:34;;;;;;;14.63;2.88;;;;;;;;;;5048280;28;20025;-68
2024/01/15 05:19:20;;;;;;;13.48;2.13;;;;;;;;;;5018169;28;20032;-69
2024/01/15 05:22:05;;;;;;;10.40;2.67;;;;;;;;;;5023168;28;20047;-68
2024/01/15 05:24:51;;;;;;;12.30;2.33;;;;;;;;;;5018970;28;20479;-69
2024/01/15 05:27:37;;;;;;;8.75;2.55;;;;;;;;;;5037789;28;20033;-68
2024/01/15 05:30:22;;;;;;;10.73;1.88;;;;;;;;;;5053339;28;20088;-68
2024/01/15 05:33:08;;;;;;;9.00;2.40;;;;;;;;;;5052570;28;20017;-69
2024/01/15 05:35:53;;;;;;;10.82;3.58;;;;;;;;;;5050647;28;20063;-69
2024/01/15 05:38:39;;;;;;;7.55;2.80;;;;;;;;;;5043269;28;20118;-68
2024/01/15 05:41:25;;;;;;;8.60;2.53;;;;;;;;;;5052416;28;20037;-69
2024/01/15 05:44:10;;;;;;;10.32;2.03;;;;;;;;;;5049334;28;20055;-68
2024/01/15 05:46:56;;;;;;;13.38;2.95;;;;;;;;;;5031675;28;20036;-69
2024/01/15 05:49:42;;;;;;;9.75;3.03;;;;;;;;;;5037634;28;20058;-69
2024/01/15 05:52:27;;;;;;;4.78;2.00;;;;;;;;;;5032495;28;20018;-69
2024/01/15 05:55:13;;;;;;;10.48;2.10;;;;;;;;;;5022865;28;20025;-69
2024/01/15 05:57:59;;;;;;;14.30;2.72;;;;;;;;;;5052236;28;20063;-69
2024/01/15 06:00:46;;;;;;;6.60;1.75;;;;;;;;;;5048895;28;20021;-68
2024/01/15 06:03:31;;;;;;;7.45;2.33;;;;;;;;;;5033238;28;20101;-68
2024/01/15 06:06:17;;;;;;;6.03;2.00;;;;;;;;;;5035991;28;20033;-69
2024/01/15 06:09:05;;;;;;;8.35;2.40;;;;;;;;;;5036701;28;20025;-69
2024/01/15 06:11:50;;;;;;;13.93;3.20;;;;;;;;;;5036489;28;20032;-68
2024/01/15 06:14:36;;;;;;;5.43;1.88;;;;;;;;;;5048703;28;20112;-68
2024/01/15 06:17:22;;;;;;;8.98;2.53;;;;;;;;;;5056915;28;20025;-68
2024/01/15 06:20:09;;;;;;;10.43;3.65;;;;;;;;;;5056407;28;20032;-69
2024/01/15 06:22:54;;;;;;;4.97;2.25;;;;;;;;;;5056746;28;20025;-68
2024/01/15 06:25:40;;;;;;;11.52;2.80;;;;;;;;;;5050884;28;20068;-68
2024/01/15 06:28:25;;;;;;;7.80;2.47;;;;;;;;;;5036746;28;20479;-68
2024/01/15 06:31:11;;;;;;;5.22;2.60;;;;;;;;;;5041916;28;20051;-69
2024/01/15 06:33:57;;;;;;;15.77;3.70;;;;;;;;;;5036765;28;20025;-68
2024/01/15 06:36:43;;;;;;;6.47;2.10;;;;;;;;;;5040587;28;20079;-68
2024/01/15 06:39:29;;;;;;;5.38;2.55;;;;;;;;;;5040429;28;20095;-69
2024/01/15 06:42:15;;;;;;;11.15;2.45;;;;;;;;;;5035812;28;20026;-68
2024/01/15 06:45:00;;;;;;;10.23;1.98;;;;;;;;;;5025689;28;20104;-69
2024/01/15 06:47:46;;;;;;;7.28;2.35;;;;;;;;;;5035405;28;20487;-69
2024/01/15 06:50:31;;;;;;;5.38;1.85;;;;;;;;;;5036565;28;20075;-69
2024/01/15 06:53:17;;;;;;;14.20;2.55;;;;;;;;;;5026215;28;20109;-69
2024/01/15 06:56:03;;;;;;;4.45;1.75;;;;;;;;;;5036169;28;20021;-68
2024/01/15 06:58:48;;;;;;;6.53;1.63;;;;;;;;;;5041618;28;20025;-68
2024/01/15 07:01:36;;;;;;;7.03;2.08;;;;;;;;;;5040923;28;20063;-68
2024/01/15 07:04:22;;;;;;;6.70;2.90;;;;;;;;;;5022991;28;20376;-69
2024/01/15 07:07:07;;;;;;;12.45;2.20;;;;;;;;;;5042257;28;20017;-69
2024/01/15 07:09:53;;;;;;;8.98;1.88;;;;;;;;;;5037748;28;20029;-68
2024/01/15 07:12:39;;;;;;;7.03;2.42;;;;;;;;;;5035899;28;20108;-68
2024/01/15 07:15:24;;;;;;;10.15;3.08;;;;;;;;;;5051118;28;20398;-68
2024/01/15 07:18:10;;;;;;;14.10;1.90;;;;;;;;;;5055579;28;20044;-69
2024/01/15 07:20:56;;;;;;;5.90;1.70;;;;;;;;;;5055514;28;20029;-69
2024/01/15 07:23:42;;;;;;;5.28;1.38;;;;;;;;;;5038667;28;20071;-68
2024/01/15 07:26:29;;;;;;;11.57;2.50;;;;;;;;;;5036146;28;20289;-69
2024/01/15 07:29:15;;;;;;;10.02;1.92;;;;;;;;;;5039062;28;20031;-68
2024/01/15 07:32:01;;;;;;;5.93;2.20;;;;;;;;;;5036331;28;20025;-69
2024/01/15 07:34:46;;;;;;;10.63;1.52;;;;;;;;;;5019981;28;20524;-69
2024/01/15 07:37:33;;;;;;;13.02;1.85;;;;;;;;;;5044115;28;20033;-68
2024/01/15 07:40:18;;;;;;;7.32;1.88;;;;;;;;;;5035308;28;20028;-69
2024/01/15 07:43:04;;;;;;;11.48;1.85;;;;;;;;;;5045371;28;20028;-68
2024/01/15 07:45:50;;;;;;;5.72;2.00;;;;;;;;;;5055325;28;20406;-69
2024/01/15 07:48:35;;;;;;;9.50;2.80;;;;;;;;;;5053421;28;20051;-69
2024/01/15 07:51:22;;;;;;;6.13;1.80;;;;;;;;;;5054812;28;20052;-69
2024/01/15 07:54:07;;;;;;;3.40;1.58;;;;;;;;;;5036833;28;20029;-69
2024/01/15 07:56:57;;;;;;;4.78;1.45;;;;;;;;;;5035923;28;20025;-69
2024/01/15 07:59:43;;;;;;;4.70;1.75;;;;;;;;;;5035651;28;20029;-69
2024/01/15 08:02:29;;;;;;;6.18;1.73;;;;;;;;;;5040101;28;20060;-69
2024/01/15 08:05:14;;;;;;;5.20;1.40;;;;;;;;;;5020027;28;20018;-69
2024/01/15 08:08:00;;;;;;;12.00;2.10;;;;;;;;;;5052546;28;20049;-69
2024/01/15 08:10:46;;;;;;;4.65;1.88;;;;;;;;;;5054609;28;20108;-69
2024/01/15 08:13:31;;;;;;;5.05;1.63;;;;;;;;;;5045768;28;20025;-69
2024/01/15 08:16:17;;;;;;;3.85;1.85;;;;;;;;;;5038820;28;20021;-68
2024/01/15 08:19:03;;;;;;;4.20;1.40;;;;;;;;;;5044871;28;20021;-70
2024/01/15 08:21:48;;;;;;;1.42;1.33;;;;;;;;;;5038101;28;20032;-69
2024/01/15 08:24:34;;;;;;;3.53;1.58;;;;;;;;;;5053129;28;20067;-69
2024/01/15 08:27:20;;;;;;;4.10;1.35;;;;;;;;;;5053897;28;20055;-70
2024/01/15 08:30:06;;;;;;;3.03;1.40;;;;;;;;;;5052746;28;20037;-68
2024/01/15 08:32:51;;;;;;;1.25;1.02;;;;;;;;;;5050065;28;20025;-68
2024/01/15 08:35:37;;;;;;;3.28;1.67;;;;;;;;;;5049291;28;20646;-68
2024/01/15 08:38:23;;;;;;;3.00;1.50;;;;;;;;;;5051368;28;20052;-69
2024/01/15 08:41:09;;;;;;;2.72;1.25;;;;;;;;;;5053954;28;20025;-69
2024/01/15 08:43:54;;;;;;;2.80;1.35;;;;;;;;;;5053637;28;20391;-68
2024/01/15 08:46:40;;;;;;;1.80;1.25;;;;;;;;;;5053680;28;20021;-69
2024/01/15 08:49:26;;;;;;;6.18;1.55;;;;;;;;;;5042034;28;20029;-69
2024/01/15 08:52:11;;;;;;;3.53;1.17;;;;;;;;;;5017894;28;20403;-69
2024/01/15 08:54:57;;;;;;;5.57;1.25;;;;;;;;;;5041499;28;20029;-69
2024/01/15 08:57:43;;;;;;;5.90;1.27;;;;;;;;;;5020245;28;20052;-69
2024/01/15 09:00:28;;;;;;;4.90;1.50;;;;;;;;;;5040714;28;20071;-69
2024/01/15 09:03:14;;;;;;;2.55;1.42;;;;;;;;;;5049672;28;20100;-69
2024/01/15 09:06:00;;;;;;;1.63;1.35;;;;;;;;;;5054395;28;20031;-69
2024/01/15 09:08:45;;;;;;;1.70;1.30;;;;;;;;;;5047388;28;20024;-69
2024/01/15 09:11:31;;;;;;;1.60;1.13;;;;;;;;;;5053601;28;20025;-69
2024/01/15 09:14:17;;;;;;;6.35;1.75;;;;;;;;;;5050719;28;20089;-68
2024/01/15 09:17:04;;;;;;;2.65;1.52;;;;;;;;;;5033590;28;20137;-69
2024/01/15 09:19:50;;;;;;;1.70;1.48;;;;;;;;;;5037597;28;20115;-69
2024/01/15 09:22:40;;;;;;;8.55;1.65;;;;;;;;;;5033105;28;20071;-70
2024/01/15 09:25:26;;;;;;;3.72;1.55;;;;;;;;;;5019122;28;20301;-69
2024/01/15 09:28:11;;;;;;;1.60;1.13;;;;;;;;;;5035355;28;20029;-69
2024/01/15 09:30:57;;;;;;;2.42;1.30;;;;;;;;;;5053118;28;20032;-69
2024/01/15 09:33:43;;;;;;;3.95;1.30;;;;;;;;;;5037737;28;20030;-68
2024/01/15 09:36:29;;;;;;;6.68;1.95;;;;;;;;;;5031218;28;20087;-69
2024/01/15 09:39:15;;;;;;;1.45;1.10;;;;;;;;;;5046328;28;20549;-68
2024/01/15 09:42:02;;;;;;;3.53;1.63;;;;;;;;;;5052427;28;20107;-69
2024/01/15 09:44:48;;;;;;;2.13;1.20;;;;;;;;;;5037919;28;20104;-68
2024/01/15 09:47:33;;;;;;;2.33;1.60;;;;;;;;;;5052860;28;20083;-68
2024/01/15 09:50:20;;;;;;;3.50;1.15;;;;;;;;;;5044561;28;20056;-68
2024/01/15 09:53:06;;;;;;;2.60;1.60;;;;;;;;;;5030900;28;20025;-68
2024/01/15 09:55:52;;;;;;;6.85;1.50;;;;;;;;;;5022856;28;20028;-68
2024/01/15 09:58:39;;;;;;;2.80;1.55;;;;;;;;;;5018386;28;20033;-68
2024/01/15 10:01:25;;;;;;;4.40;1.77;;;;;;;;;;5042365;28;20112;-68
2024/01/15 10:04:12;;;;;;;5.10;1.30;;;;;;;;;;5052335;28;20017;-69
2024/01/15 10:07:00;;;;;;;2.08;1.05;;;;;;;;;;5046068;28;20036;-69
2024/01/15 10:09:46;;;;;;;4.25;1.30;;;;;;;;;;5018032;28;20029;-68
2024/01/15 10:12:32;;;;;;;5.90;1.60;;;;;;;;;;5037277;28;20028;-68
2024/01/15 10:15:18;;;;;;;4.15;1.60;;;;;;;;;;5033200;28;20119;-68
2024/01/15 10:18:04;;;;;;;3.63;1.67;;;;;;;;;;5035748;28;20079;-67
2024/01/15 10:20:49;;;;;;;3.42;1.27;;;;;;;;;;5051431;28;20091;-69
2024/01/15 10:23:36;;;;;;;4.90;2.03;;;;;;;;;;5035956;28;20021;-69
2024/01/15 10:26:24;;;;;;;6.22;1.45;;;;;;;;;;5048939;28;20056;-69
2024/01/15 10:29:10;;;;;;;2.67;1.30;;;;;;;;;;5052383;28;20057;-68
2024/01/15 10:31:56;;;;;;;3.28;2.05;;;;;;;;;;5052190;28;20025;-69
2024/01/15 10:34:45;;;;;;;10.63;1.67;;;;;;;;;;5044628;28;20032;-68
2024/01/15 10:37:34;;;;;;;1.95;1.13;;;;;;;;;;5050752;28;20040;-68
2024/01/15 10:40:20;;;;;;;4.35;1.33;;;;;;;;;;5045905;28;20026;-69
2024/01/15 10:43:05;;;;;;;3.97;1.42;;;;;;;;;;5053213;28;20017;-68
2024/01/15 10:45:51;;;;;;;1.40;1.30;;;;;;;;;;5037155;28;20434;-68
2024/01/15 10:48:37;;;;;;;1.27;1.13;;;;;;;;;;5048862;28;20029;-68
2024/01/15 10:51:23;;;;;;;3.90;1.88;;;;;;;;;;5034530;28;20025;-68
2024/01/15 10:54:10;;;;;;;2.40;2.20;;;;;;;;;;5042751;28;20029;-68
2024/01/15 10:56:57;;;;;;;7.40;1.92;;;;;;;;;;5035674;28;20033;-69
2024/01/15 10:59:42;;;;;;;1.85;1.27;;;;;;;;;;5023165;28;20460;-68
2024/01/15 11:02:28;;;;;;;11.35;1.88;;;;;;;;;;5040292;28;20100;-68
2024/01/15 11:05:14;;;;;;;3.78;1.55;;;;;;;;;;5021217;28;20024;-68
2024/01/15 11:08:01;;;;;;;3.40;1.77;;;;;;;;;;5039477;28;20509;-68
2024/01/15 11:10:49;;;;;;;4.03;1.42;;;;;;;;;;5037636;28;20037;-68
2024/01/15 11:13:37;;;;;;;4.13;1.45;;;;;;;;;;5034858;28;20376;-68
2024/01/15 11:16:23;;;;;;;7.85;1.75;;;;;;;;;;5036024;28;20376;-69
2024/01/15 11:19:12;;;;;;;6.47;1.25;;;;;;;;;;5035672;28;20021;-68
2024/01/15 11:21:58;;;;;;;1.63;1.35;;;;;;;;;;5034693;28;20025;-69
2024/01/15 11:24:44;;;;;;;7.53;1.77;;;;;;;;;;5051525;28;20025;-69
2024/01/15 11:27:52;;;;;;;1.70;1.52;;;;;;;;;;5054103;28;20033;-68
2024/01/15 11:30:37;;;;;;;4.18;1.35;;;;;;;;;;5040456;28;20113;-68
2024/01/15 11:33:32;;;;;;;5.55;1.35;;;;;;;;;;5053964;28;20025;-68
2024/01/15 11:36:18;;;;;;;2.45;1.35;;;;;;;;;;5055769;28;20517;-68
2024/01/15 11:39:30;;;;;;;3.70;1.50;;;;;;;;;;5041048;28;20126;-69
2024/01/15 11:42:16;;;;;;;5.93;1.50;;;;;;;;;;5036385;28;20052;-69
2024/01/15 11:45:03;;;;;;;2.80;1.33;;;;;;;;;;5045317;28;20025;-69
2024/01/15 11:48:08;;;;;;;2.03;1.42;;;;;;;;;;5041258;28;20030;-68
2024/01/15 11:50:55;;;;;;;2.33;1.60;;;;;;;;;;5034603;28;20026;-68
2024/01/15 11:53:46;;;;;;;4.28;1.30;;;;;;;;;;5029690;28;20056;-69
2024/01/15 11:56:32;;;;;;;2.90;1.52;;;;;;;;;;5033445;28;20033;-69
2024/01/15 11:59:18;;;;;;;1.92;1.25;;;;;;;;;;5050206;28;20025;-68
2024/01/15 12:02:04;;;;;;;4.20;2.15;;;;;;;;;;5050495;28;20017;-68
2024/01/15 12:04:49;;;;;;;3.33;2.03;;;;;;;;;;5020750;28;20506;-68
2024/01/15 12:07:35;;;;;;;4.38;1.98;;;;;;;;;;5037183;28;20394;-68
2024/01/15 12:10:21;;;;;;;4.07;1.73;;;;;;;;;;5035151;28;20574;-69
2024/01/15 12:13:14;;;;;;;2.45;1.45;;;;;;;;;;5039988;28;20093;-68
2024/01/15 12:16:02;;;;;;;2.67;1.75;;;;;;;;;;5019657;28;20025;-69
2024/01/15 12:18:47;;;;;;;2.28;1.73;;;;;;;;;;5020591;28;20087;-68
2024/01/15 12:21:33;;;;;;;3.00;1.40;;;;;;;;;;5039511;28;20431;-68
2024/01/15 12:24:19;;;;;;;5.93;1.70;;;;;;;;;;5053260;28;20039;-68
2024/01/15 12:27:07;;;;;;;9.93;1.40;;;;;;;;;;5045899;28;20498;-69
2024/01/15 12:29:53;;;;;;;13.23;2.78;;;;;;;;;;5051063;28;20024;-68
2024/01/15 12:32:42;;;;;;;8.70;2.15;;;;;;;;;;5040232;28;20028;-68
2024/01/15 12:35:29;;;;;;;3.72;2.08;;;;;;;;;;5054560;28;20036;-69
2024/01/15 12:39:16;;;;;;;4.78;1.75;;;;;;;;;;5091201;28;20406;-67
2024/01/15 12:42:03;;;;;;;5.63;1.30;;;;;;;;;;5069800;28;20498;-68
2024/01/15 12:44:49;;;;;;;2.40;2.20;;;;;;;;;;5069759;28;20028;-68
2024/01/15 12:47:38;;;;;;;3.10;1.45;;;;;;;;;;5082829;28;20029;-67
2024/01/15 12:50:25;;;;;;;2.75;2.03;;;;;;;;;;5070906;28;20086;-68
2024/01/15 12:53:11;;;;;;;6.85;1.35;;;;;;;;;;5069313;28;20025;-67
2024/01/15 12:55:56;;;;;;;3.20;1.20;;;;;;;;;;5069131;28;20113;-68
2024/01/15 12:58:42;;;;;;;3.95;1.52;;;;;;;;;;5070396;28;20116;-68
2024/01/15 13:01:27;;;;;;;3.22;1.38;;;;;;;;;;5076242;28;20029;-70
2024/01/15 13:04:23;;;;;;;10.38;2.50;;;;;;;;;;5085194;28;20393;-67
2024/01/15 13:07:09;;;;;;;1.38;0.95;;;;;;;;;;5068702;28;20549;-67
2024/01/15 13:09:54;;;;;;;6.18;1.55;;;;;;;;;;5072496;28;20059;-68
2024/01/15 13:12:40;;;;;;;2.58;1.33;;;;;;;;;;5070896;28;20029;-67
2024/01/15 13:15:26;;;;;;;2.70;1.67;;;;;;;;;;5068791;28;20033;-68
2024/01/15 13:18:12;;;;;;;5.78;2.00;;;;;;;;;;5071554;28;20112;-67
2024/01/15 13:20:58;;;;;;;3.33;1.23;;;;;;;;;;5071431;28;20029;-68
2024/01/15 13:23:43;;;;;;;3.17;1.63;;;;;;;;;;5068716;28;20062;-67
2024/01/15 13:26:29;;;;;;;6.63;2.25;;;;;;;;;;5077777;28;20494;-68
2024/01/15 13:29:14;;;;;;;4.15;2.05;;;;;;;;;;5068891;28;20025;-67
2024/01/15 13:32:02;;;;;;;2.53;1.75;;;;;;;;;;5077069;28;20401;-68
2024/01/15 13:34:48;;;;;;;2.25;1.65;;;;;;;;;;5054813;28;20468;-70
2024/01/15 13:37:34;;;;;;;4.22;1.45;;;;;;;;;;5078085;28;20100;-70
2024/01/15 13:40:19;;;;;;;1.60;1.38;;;;;;;;;;5088593;28;20024;-70
2024/01/15 13:43:08;;;;;;;2.58;1.88;;;;;;;;;;5089044;28;20497;-70
2024/01/15 13:45:54;;;;;;;2.90;1.27;;;;;;;;;;5088048;28;20478;-70
2024/01/15 13:48:40;;;;;;;2.25;2.15;;;;;;;;;;5085731;28;20467;-70
2024/01/15 13:51:25;;;;;;;2.28;1.48;;;;;;;;;;5075498;28;20028;-70
2024/01/15 13:54:11;;;;;;;2.35;1.48;;;;;;;;;;5073868;28;20028;-69
2024/01/15 13:56:58;;;;;;;2.78;1.45;;;;;;;;;;5068148;28;20031;-71
2024/01/15 13:59:44;;;;;;;3.72;1.48;;;;;;;;;;5074445;28;20074;-70
2024/01/15 14:02:30;;;;;;;2.83;1.48;;;;;;;;;;5074722;28;20056;-71
2024/01/15 14:05:16;;;;;;;3.60;1.40;;;;;;;;;;5073912;28;20021;-70
2024/01/15 14:08:03;;;;;;;5.38;1.30;;;;;;;;;;5063050;28;20523;-70
2024/01/15 14:10:49;;;;;;;8.55;1.83;;;;;;;;;;5053349;28;20041;-71
2024/01/15 14:13:34;;;;;;;16.60;6.70;;;;;;;;;;5070642;28;20027;-69
2024/01/15 14:16:20;;;;;;;11.30;6.30;;;;;;;;;;5055058;28;20028;-70
2024/01/15 14:19:09;;;;;;;9.23;4.35;;;;;;;;;;5057887;28;20036;-71
2024/01/15 14:21:55;;;;;;;12.10;3.38;;;;;;;;;;5068695;28;20029;-70
2024/01/15 14:24:41;;;;;;;13.50;3.83;;;;;;;;;;5055682;28;20082;-70
2024/01/15 14:27:26;;;;;;;10.48;3.05;;;;;;;;;;5074049;28;20074;-70
2024/01/15 14:30:13;;;;;;;7.22;3.00;;;;;;;;;;5074709;28;20024;-70
2024/01/15 14:33:01;;;;;;;4.28;2.40;;;;;;;;;;5064498;28;20024;-70
2024/01/15 14:35:46;;;;;;;4.15;2.15;;;;;;;;;;5073504;28;20486;-70
2024/01/15 14:38:32;;;;;;;6.35;2.38;;;;;;;;;;5060464;28;20024;-70
2024/01/15 14:41:17;;;;;;;3.67;2.08;;;;;;;;;;5054574;28;20025;-70
2024/01/15 14:44:03;;;;;;;6.85;2.65;;;;;;;;;;5066239;28;20440;-70
2024/01/15 14:46:50;;;;;;;5.88;2.30;;;;;;;;;;5063107;28;20052;-70
2024/01/15 14:49:35;;;;;;;6.68;2.85;;;;;;;;;;5054985;28;20550;-70
2024/01/15 14:52:21;;;;;;;8.00;2.92;;;;;;;;;;5056438;28;20116;-70
2024/01/15 14:55:08;;;;;;;7.97;2.17;;;;;;;;;;5058323;28;20490;-70
2024/01/15 14:57:54;;;;;;;2.67;1.92;;;;;;;;;;5055473;28;20025;-70
2024/01/15 15:00:40;;;;;;;4.15;1.95;;;;;;;;;;5069383;28;20031;-70
2024/01/15 15:03:29;;;;;;;11.15;1.52;;;;;;;;;;5073633;28;20402;-71
2024/01/15 15:06:14;;;;;;;2.75;1.33;;;;;;;;;;5074459;28;20032;-70
2024/01/15 15:09:00;;;;;;;1.60;1.38;;;;;;;;;;5073486;28;20019;-70
2024/01/15 15:11:46;;;;;;;6.05;1.88;;;;;;;;;;5073745;28;20024;-70
2024/01/15 15:14:37;;;;;;;3.15;1.52;;;;;;;;;;5063584;28;20037;-70
2024/01/15 15:17:22;;;;;;;4.28;2.03;;;;;;;;;;5053526;28;20028;-70
2024/01/15 15:20:09;;;;;;;1.95;1.77;;;;;;;;;;5062721;28;20166;-70
2024/01/15 15:22:55;;;;;;;2.13;1.55;;;;;;;;;;5073163;28;20397;-70
2024/01/15 15:25:44;;;;;;;3.10;1.38;;;;;;;;;;5069979;28;20074;-71
2024/01/15 15:28:29;;;;;;;5.20;2.80;;;;;;;;;;5073384;28;20025;-70
2024/01/15 15:31:15;;;;;;;11.02;3.90;;;;;;;;;;5071061;28;20016;-71
2024/01/15 15:34:01;;;;;;;5.22;2.33;;;;;;;;;;5053672;28;20074;-70
2024/01/15 15:36:46;;;;;;;125.78;21.30;;;;;;;;;;5055084;28;20021;-70
2024/01/15 15:39:32;;;;;;;87.47;18.73;;;;;;;;;;5065565;28;20033;-70
2024/01/15 15:42:18;;;;;;;23.20;7.22;;;;;;;;;;5053845;28;20056;-69
2024/01/15 15:45:04;;;;;;;31.38;7.50;;;;;;;;;;5053949;28;20083;-69
2024/01/15 15:47:50;;;;;;;20.50;6.40;;;;;;;;;;5053533;28;20397;-70
2024/01/15 15:50:36;;;;;;;6.28;3.88;;;;;;;;;;5059119;28;20025;-70
2024/01/15 15:53:22;;;;;;;24.92;4.93;;;;;;;;;;5054168;28;20025;-70
2024/01/15 15:56:07;;;;;;;6.35;2.50;;;;;;;;;;5067219;28;20047;-70
2024/01/15 15:58:53;;;;;;;9.93;2.75;;;;;;;;;;5072194;28;20016;-68
2024/01/15 16:01:38;;;;;;;11.50;3.42;;;;;;;;;;5065799;28;20486;-68
2024/01/15 16:04:24;;;;;;;3.33;1.38;;;;;;;;;;5071672;28;20028;-67
2024/01/15 16:07:11;;;;;;;12.13;4.00;;;;;;;;;;5069314;28;20551;-67
2024/01/15 16:09:57;;;;;;;11.32;3.33;;;;;;;;;;5053670;28;20048;-67
2024/01/15 16:12:42;;;;;;;4.93;1.83;;;;;;;;;;5055871;28;20034;-67
2024/01/15 16:15:28;;;;;;;5.93;2.15;;;;;;;;;;5070131;28;20036;-68
2024/01/15 16:18:13;;;;;;;6.20;1.58;;;;;;;;;;5072298;28;20446;-67
2024/01/15 16:20:59;;;;;;;5.15;3.03;;;;;;;;;;5072934;28;20115;-68
2024/01/15 16:23:45;;;;;;;5.35;2.70;;;;;;;;;;5072888;28;20063;-67
2024/01/15 16:26:30;;;;;;;4.43;2.10;;;;;;;;;;5072838;28;20020;-67
2024/01/15 16:29:16;;;;;;;10.38;2.67;;;;;;;;;;5072819;28;20420;-67
2024/01/15 16:32:03;;;;;;;3.55;1.52;;;;;;;;;;5072625;28;20025;-67